createdAt,value
2023-03-11T00:02:15.626Z,0.46
2023-03-11T00:04:42.975Z,0.34
2023-03-11T00:07:11.251Z,0.45
2023-03-11T00:09:38.187Z,0.49
2023-03-11T00:12:05.425Z,0.49
2023-03-11T00:14:31.980Z,0.44
2023-03-11T00:16:58.459Z,0.38
2023-03-11T00:19:24.968Z,0.38
2023-03-11T00:21:51.489Z,0.24
2023-03-11T00:24:17.992Z,0.10
2023-03-11T00:26:44.535Z,-0.04
2023-03-11T00:29:11.104Z,-0.05
2023-03-11T00:31:37.579Z,-0.19
2023-03-11T00:34:04.136Z,-0.24
2023-03-11T00:36:33.700Z,-0.28
2023-03-11T00:39:03.510Z,-0.36
2023-03-11T00:41:30.028Z,-0.43
2023-03-11T00:43:56.686Z,-0.47
2023-03-11T00:46:23.353Z,-0.49
2023-03-11T00:48:53.094Z,-0.57
2023-03-11T00:51:19.903Z,-0.63
2023-03-11T00:53:46.611Z,-0.63
2023-03-11T00:56:15.086Z,-0.65
2023-03-11T00:58:44.173Z,-0.69
2023-03-11T01:01:17.960Z,-0.63
2023-03-11T01:03:44.931Z,-0.65
2023-03-11T01:06:12.076Z,-0.61
2023-03-11T01:08:38.781Z,-0.62
2023-03-11T01:11:06.578Z,-0.67
2023-03-11T01:13:33.865Z,-0.69
2023-03-11T01:16:01.128Z,-0.74
2023-03-11T01:18:27.940Z,-0.72
2023-03-11T01:20:54.895Z,-0.76
2023-03-11T01:23:22.141Z,-0.62
2023-03-11T01:25:49.308Z,-0.60
2023-03-11T01:28:16.101Z,-0.63
2023-03-11T01:30:43.488Z,-0.60
2023-03-11T01:33:16.263Z,-0.59
2023-03-11T01:35:43.674Z,-0.64
2023-03-11T01:38:11.169Z,-0.60
2023-03-11T01:40:50.194Z,-0.60
2023-03-11T01:43:41.528Z,-0.48
2023-03-11T01:46:10.482Z,-0.47
2023-03-11T01:48:38.871Z,-0.45
2023-03-11T01:51:06.687Z,-0.41
2023-03-11T01:53:33.809Z,-0.37
2023-03-11T01:56:03.409Z,-0.38
2023-03-11T01:58:36.039Z,-0.38
2023-03-11T02:01:03.279Z,-0.36
2023-03-11T02:03:36.416Z,-0.39
2023-03-11T02:06:06.795Z,-0.39
2023-03-11T02:08:36.644Z,-0.39
2023-03-11T02:11:05.799Z,-0.36
2023-03-11T02:13:35.221Z,-0.33
2023-03-11T02:16:03.360Z,-0.25
2023-03-11T02:18:30.057Z,-0.15
2023-03-11T02:21:06.127Z,-0.13
2023-03-11T02:24:02.600Z,-0.10
2023-03-11T02:26:58.115Z,-0.09
2023-03-11T02:29:28.086Z,-0.06
2023-03-11T02:31:56.832Z,-0.10
2023-03-11T02:34:29.583Z,-0.14
2023-03-11T02:36:56.638Z,-0.16
2023-03-11T02:39:37.765Z,-0.13
2023-03-11T02:42:32.348Z,-0.09
2023-03-11T02:45:09.358Z,-0.07
2023-03-11T02:47:38.760Z,-0.03
2023-03-11T02:50:06.338Z,-0.03
2023-03-11T02:52:34.677Z,-0.11
2023-03-11T02:55:01.759Z,-0.21
2023-03-11T02:57:28.681Z,-0.29
2023-03-11T02:59:55.378Z,-0.36
2023-03-11T03:02:21.982Z,-0.41
2023-03-11T03:04:48.489Z,-0.47
2023-03-11T03:07:15.049Z,-0.48
2023-03-11T03:09:41.722Z,-0.51
2023-03-11T03:12:08.268Z,-0.54
2023-03-11T03:14:34.827Z,-0.62
2023-03-11T03:17:01.562Z,-0.65
2023-03-11T03:19:28.135Z,-0.70
2023-03-11T03:21:54.634Z,-0.73
2023-03-11T03:24:21.123Z,-0.72
2023-03-11T03:26:47.812Z,-0.78
2023-03-11T03:29:14.394Z,-0.87
2023-03-11T03:31:41.223Z,-0.95
2023-03-11T03:34:08.390Z,-1.01
2023-03-11T03:36:34.938Z,-1.04
2023-03-11T03:39:01.688Z,-1.14
2023-03-11T03:41:28.648Z,-1.11
2023-03-11T03:43:55.471Z,-1.15
2023-03-11T03:46:22.473Z,-1.13
2023-03-11T03:48:49.130Z,-1.11
2023-03-11T03:51:15.945Z,-1.00
2023-03-11T03:53:43.298Z,-0.88
2023-03-11T03:56:12.180Z,-0.78
2023-03-11T03:58:39.146Z,-0.63
2023-03-11T04:01:07.328Z,-0.53
2023-03-11T04:03:35.262Z,-0.49
2023-03-11T04:06:18.815Z,-0.44
2023-03-11T04:08:45.465Z,-0.42
2023-03-11T04:11:12.331Z,-0.48
2023-03-11T04:13:39.075Z,-0.50
2023-03-11T04:16:07.498Z,-0.49
2023-03-11T04:18:35.034Z,-0.57
2023-03-11T04:21:05.814Z,-0.66
2023-03-11T04:23:32.703Z,-0.76
2023-03-11T04:25:59.876Z,-0.77
2023-03-11T04:28:26.608Z,-0.79
2023-03-11T04:30:53.208Z,-0.87
2023-03-11T04:33:20.185Z,-0.89
2023-03-11T04:35:46.782Z,-0.95
2023-03-11T04:38:13.538Z,-0.88
2023-03-11T04:40:40.064Z,-0.82
2023-03-11T04:43:06.999Z,-0.74
2023-03-11T04:45:33.506Z,-0.64
2023-03-11T04:48:00.039Z,-0.50
2023-03-11T04:50:26.588Z,-0.38
2023-03-11T04:52:53.118Z,-0.32
2023-03-11T04:55:19.681Z,-0.21
2023-03-11T04:57:46.164Z,-0.12
2023-03-11T05:00:13.819Z,-0.05
2023-03-11T05:02:41.194Z,0.00
2023-03-11T05:05:09.761Z,0.04
2023-03-11T05:07:36.791Z,0.05
2023-03-11T05:10:04.795Z,0.01
2023-03-11T05:12:31.423Z,0.10
2023-03-11T05:14:57.914Z,0.20
2023-03-11T05:17:25.139Z,0.27
2023-03-11T05:19:53.829Z,0.26
2023-03-11T05:22:21.026Z,0.27
2023-03-11T05:24:48.027Z,0.22
2023-03-11T05:27:18.147Z,0.11
2023-03-11T05:29:45.272Z,-0.04
2023-03-11T05:32:13.333Z,-0.29
2023-03-11T05:34:40.095Z,-0.43
2023-03-11T05:37:06.676Z,-0.61
2023-03-11T05:39:34.248Z,-0.79
2023-03-11T05:42:01.107Z,-0.94
2023-03-11T05:44:27.836Z,-1.03
2023-03-11T05:46:54.477Z,-1.12
2023-03-11T05:49:21.668Z,-1.19
2023-03-11T05:51:49.582Z,-1.23
2023-03-11T05:54:17.225Z,-1.27
2023-03-11T05:56:45.199Z,-1.38
2023-03-11T05:59:16.561Z,-1.53
2023-03-11T06:01:44.221Z,-1.59
2023-03-11T06:04:11.012Z,-1.73
2023-03-11T06:06:40.530Z,-1.69
2023-03-11T06:09:09.811Z,-1.76
2023-03-11T06:11:36.308Z,-1.78
2023-03-11T06:14:02.898Z,-1.75
2023-03-11T06:16:29.698Z,-1.61
2023-03-11T06:19:00.769Z,-1.59
2023-03-11T06:21:27.644Z,-1.69
2023-03-11T06:23:55.162Z,-1.80
2023-03-11T06:26:22.889Z,-1.86
2023-03-11T06:28:51.834Z,-1.91
2023-03-11T06:31:27.062Z,-1.78
2023-03-11T06:33:56.066Z,-1.62
2023-03-11T06:36:23.291Z,-1.61
2023-03-11T06:38:52.764Z,-1.62
2023-03-11T06:41:19.272Z,-1.42
2023-03-11T06:43:45.890Z,-1.39
2023-03-11T06:46:16.404Z,-1.29
2023-03-11T06:48:43.175Z,-1.23
2023-03-11T06:51:10.708Z,-1.15
2023-03-11T06:53:37.281Z,-1.09
2023-03-11T06:56:09.777Z,-1.12
2023-03-11T06:58:38.215Z,-1.10
2023-03-11T07:01:19.225Z,-0.93
2023-03-11T07:03:47.535Z,-0.82
2023-03-11T07:06:22.546Z,-0.59
2023-03-11T07:08:50.513Z,-0.25
2023-03-11T07:11:22.524Z,0.07
2023-03-11T07:13:49.425Z,0.19
2023-03-11T07:16:20.903Z,0.27
2023-03-11T07:18:48.708Z,0.37
2023-03-11T07:21:17.662Z,0.46
2023-03-11T07:23:44.606Z,0.55
2023-03-11T07:26:15.959Z,0.72
2023-03-11T07:28:42.692Z,0.88
2023-03-11T07:31:16.674Z,1.25
2023-03-11T07:33:43.395Z,1.52
2023-03-11T07:36:19.866Z,2.01
2023-03-11T07:38:46.987Z,2.27
2023-03-11T07:41:14.998Z,2.54
2023-03-11T07:43:43.073Z,2.79
2023-03-11T07:46:16.831Z,2.80
2023-03-11T07:48:44.474Z,2.75
2023-03-11T07:51:22.198Z,2.78
2023-03-11T07:53:50.120Z,2.92
2023-03-11T07:56:17.433Z,3.17
2023-03-11T07:58:45.786Z,3.58
2023-03-11T08:01:18.149Z,3.77
2023-03-11T08:03:47.095Z,3.81
2023-03-11T08:06:18.866Z,3.90
2023-03-11T08:08:45.666Z,3.99
2023-03-11T08:11:15.956Z,4.06
2023-03-11T08:13:44.489Z,3.92
2023-03-11T08:16:13.562Z,3.90
2023-03-11T08:18:40.260Z,3.99
2023-03-11T08:21:09.384Z,4.18
2023-03-11T08:23:36.222Z,4.55
2023-03-11T08:26:07.496Z,5.06
2023-03-11T08:28:34.567Z,5.67
2023-03-11T08:31:01.322Z,6.23
2023-03-11T08:33:28.050Z,6.46
2023-03-11T08:35:55.323Z,6.57
2023-03-11T08:38:22.176Z,6.69
2023-03-11T08:40:48.710Z,7.21
2023-03-11T08:43:16.006Z,7.82
2023-03-11T08:45:43.098Z,8.25
2023-03-11T08:48:11.850Z,8.44
2023-03-11T08:50:53.366Z,8.30
2023-03-11T08:53:21.510Z,8.28
2023-03-11T08:55:48.260Z,8.59
2023-03-11T08:58:14.823Z,8.89
2023-03-11T09:00:41.559Z,8.95
2023-03-11T09:03:08.218Z,9.32
2023-03-11T09:05:34.709Z,9.35
2023-03-11T09:08:05.216Z,9.05
2023-03-11T09:10:32.636Z,9.15
2023-03-11T09:12:59.441Z,9.29
2023-03-11T09:15:26.026Z,9.11
2023-03-11T09:17:53.033Z,9.19
2023-03-11T09:20:19.831Z,9.05
2023-03-11T09:22:46.751Z,8.88
2023-03-11T09:25:13.891Z,8.21
2023-03-11T09:27:41.460Z,8.13
2023-03-11T09:30:09.568Z,8.07
2023-03-11T09:32:36.248Z,8.03
2023-03-11T09:35:02.907Z,7.46
2023-03-11T09:37:30.257Z,7.62
2023-03-11T09:39:56.928Z,8.31
2023-03-11T09:42:31.468Z,9.80
2023-03-11T09:45:04.452Z,10.56
2023-03-11T09:47:36.900Z,10.22
2023-03-11T09:50:24.994Z,9.95
2023-03-11T09:53:29.511Z,9.79
2023-03-11T09:55:59.506Z,9.51
2023-03-11T09:58:47.079Z,9.01
2023-03-11T10:01:23.113Z,9.01
2023-03-11T10:03:53.278Z,8.87
2023-03-11T10:06:24.137Z,8.60
2023-03-11T10:09:12.279Z,8.28
2023-03-11T10:12:08.465Z,8.34
2023-03-11T10:14:39.822Z,8.39
2023-03-11T10:17:13.017Z,8.40
2023-03-11T10:19:48.482Z,8.37
2023-03-11T10:22:25.786Z,8.43
2023-03-11T10:25:14.324Z,8.55
2023-03-11T10:27:49.704Z,8.34
2023-03-11T10:30:28.884Z,8.41
2023-03-11T10:33:03.389Z,8.46
2023-03-11T11:06:52.966Z,8.83
2023-03-11T11:09:22.347Z,9.16
2023-03-11T11:12:15.994Z,9.69
2023-03-11T11:18:36.210Z,10.30
2023-03-11T11:21:37.349Z,10.58
2023-03-11T11:24:24.701Z,11.19
2023-03-11T11:27:18.994Z,11.46
2023-03-11T11:29:46.891Z,11.78
2023-03-11T11:32:24.108Z,12.12
2023-03-11T11:35:07.371Z,12.64
2023-03-11T11:37:36.862Z,12.62
2023-03-11T11:40:28.265Z,12.30
2023-03-11T11:43:04.161Z,11.86
2023-03-11T11:45:38.287Z,11.20
2023-03-11T11:48:14.695Z,11.09
2023-03-11T11:50:45.572Z,10.89
2023-03-11T11:53:21.225Z,10.44
2023-03-11T11:55:50.272Z,11.10
2023-03-11T11:58:16.871Z,10.66
2023-03-11T12:01:25.026Z,10.88
2023-03-11T12:03:54.323Z,10.90
2023-03-11T12:06:45.787Z,11.41
2023-03-11T12:10:31.895Z,11.85
2023-03-11T12:13:05.954Z,12.11
2023-03-11T12:15:42.855Z,12.91
2023-03-11T12:18:25.989Z,13.12
2023-03-11T12:20:56.031Z,12.07
2023-03-11T12:23:55.987Z,12.60
2023-03-11T12:26:25.366Z,13.08
2023-03-11T12:29:08.446Z,13.47
2023-03-11T12:31:39.600Z,13.72
2023-03-11T12:34:10.992Z,13.36
2023-03-11T12:36:41.177Z,13.43
2023-03-11T12:39:20.743Z,12.20
2023-03-11T12:41:47.334Z,12.92
2023-03-11T12:44:30.907Z,12.50
2023-03-11T12:47:04.323Z,12.28
2023-03-11T12:49:33.488Z,11.43
2023-03-11T12:52:05.006Z,10.14
2023-03-11T12:54:34.411Z,10.55
2023-03-11T12:57:04.322Z,11.11
2023-03-11T12:59:49.868Z,11.50
2023-03-11T13:02:31.407Z,11.60
2023-03-11T13:05:07.789Z,10.48
2023-03-11T13:07:51.403Z,10.88
2023-03-11T13:10:38.406Z,11.37
2023-03-11T13:13:23.380Z,11.85
2023-03-11T13:15:50.790Z,11.97
2023-03-11T13:18:24.241Z,11.06
2023-03-11T13:20:56.277Z,11.13
2023-03-11T13:23:28.156Z,11.76
2023-03-11T13:25:54.613Z,11.97
2023-03-11T13:28:52.047Z,11.13
2023-03-11T13:31:32.386Z,10.89
2023-03-11T13:34:17.140Z,10.16
2023-03-11T13:36:53.459Z,10.37
2023-03-11T13:39:41.528Z,10.88
2023-03-11T13:42:31.357Z,11.56
2023-03-11T13:44:59.622Z,12.18
2023-03-11T13:47:27.562Z,12.43
2023-03-11T13:50:02.300Z,12.47
2023-03-11T13:52:35.490Z,12.67
2023-03-11T13:55:07.511Z,12.02
2023-03-11T13:57:36.466Z,11.82
2023-03-11T14:00:18.242Z,11.42
2023-03-11T14:02:55.437Z,10.01
2023-03-11T14:05:32.148Z,9.05
2023-03-11T14:08:21.889Z,8.55
2023-03-11T14:10:56.173Z,8.65
2023-03-11T14:13:24.869Z,8.98
2023-03-11T14:16:00.366Z,9.39
2023-03-11T14:18:41.591Z,9.82
2023-03-11T14:21:16.542Z,10.07
2023-03-11T14:23:50.738Z,10.43
2023-03-11T14:26:23.100Z,10.51
2023-03-11T14:28:54.976Z,10.35
2023-03-11T14:31:44.082Z,10.16
2023-03-11T14:34:10.611Z,9.96
2023-03-11T14:36:54.661Z,9.92
2023-03-11T14:39:38.458Z,9.89
2023-03-11T14:42:28.795Z,9.77
2023-03-11T14:44:58.231Z,9.75
2023-03-11T14:47:31.846Z,9.71
2023-03-11T14:49:59.358Z,9.42
2023-03-11T14:52:38.650Z,9.15
2023-03-11T14:55:12.050Z,8.99
2023-03-11T14:58:04.522Z,8.78
2023-03-11T15:00:38.132Z,8.73
2023-03-11T15:03:26.926Z,8.72
2023-03-11T15:06:00.773Z,8.59
2023-03-11T15:08:31.576Z,8.38
2023-03-11T15:11:11.773Z,8.25
2023-03-11T15:13:40.936Z,8.15
2023-03-11T15:16:22.731Z,8.12
2023-03-11T15:18:49.429Z,8.02
2023-03-11T15:21:19.150Z,7.96
2023-03-11T15:23:51.368Z,7.87
2023-03-11T15:26:24.675Z,7.82
2023-03-11T15:29:13.671Z,7.80
2023-03-11T15:31:42.631Z,7.61
2023-03-11T15:34:30.916Z,7.53
2023-03-11T15:37:06.403Z,7.33
2023-03-11T15:39:33.066Z,7.20
2023-03-11T15:42:15.965Z,7.23
2023-03-11T15:44:50.186Z,7.23
2023-03-11T15:47:20.592Z,7.14
2023-03-11T15:49:48.010Z,7.07
2023-03-11T15:52:15.349Z,6.94
2023-03-11T15:54:44.241Z,6.84
2023-03-11T15:57:27.244Z,6.65
2023-03-11T15:59:56.920Z,6.45
2023-03-11T16:02:28.741Z,6.26
2023-03-11T16:04:56.199Z,6.09
2023-03-11T16:07:38.275Z,6.00
2023-03-11T16:10:06.122Z,5.92
2023-03-11T16:12:32.982Z,5.93
2023-03-11T16:14:59.545Z,5.91
2023-03-11T16:17:28.597Z,5.86
2023-03-11T16:19:58.318Z,5.79
2023-03-11T16:22:35.109Z,5.68
2023-03-11T16:25:02.660Z,5.64
2023-03-11T16:27:29.429Z,5.62
2023-03-11T16:29:56.540Z,5.63
2023-03-11T16:32:23.133Z,5.65
2023-03-11T16:34:49.685Z,5.71
2023-03-11T16:37:20.728Z,5.78
2023-03-11T16:39:48.619Z,5.79
2023-03-11T16:42:23.313Z,5.74
2023-03-11T16:44:50.307Z,5.68
2023-03-11T16:47:17.259Z,5.71
2023-03-11T16:49:43.868Z,5.65
2023-03-11T16:52:10.511Z,5.46
2023-03-11T16:54:37.152Z,5.21
2023-03-11T16:57:04.055Z,4.94
2023-03-11T16:59:30.624Z,4.64
2023-03-11T17:01:57.694Z,4.40
2023-03-11T17:04:24.174Z,4.22
2023-03-11T17:06:50.702Z,4.09
2023-03-11T17:09:17.373Z,4.03
2023-03-11T17:11:43.848Z,3.99
2023-03-11T17:14:16.690Z,3.91
2023-03-11T17:16:45.260Z,3.79
2023-03-11T17:19:11.834Z,3.74
2023-03-11T17:21:38.437Z,3.64
2023-03-11T17:24:05.310Z,3.58
2023-03-11T17:26:32.002Z,3.51
2023-03-11T17:28:59.133Z,3.42
2023-03-11T17:31:25.815Z,3.36
2023-03-11T17:33:52.424Z,3.32
2023-03-11T17:36:19.180Z,3.27
2023-03-11T17:38:47.245Z,3.20
2023-03-11T17:41:16.450Z,3.17
2023-03-11T17:43:43.310Z,3.16
2023-03-11T17:46:14.301Z,3.13
2023-03-11T17:48:41.719Z,3.10
2023-03-11T17:51:12.906Z,3.04
2023-03-11T17:53:41.068Z,3.04
2023-03-11T17:56:08.519Z,3.01
2023-03-11T17:58:36.003Z,2.92
2023-03-11T18:01:05.059Z,2.86
2023-03-11T18:03:31.557Z,2.80
2023-03-11T18:06:00.383Z,2.72
2023-03-11T18:08:27.441Z,2.63
2023-03-11T18:10:55.914Z,2.58
2023-03-11T18:13:22.413Z,2.54
2023-03-11T18:15:57.290Z,2.55
2023-03-11T18:18:23.914Z,2.56
2023-03-11T18:20:50.588Z,2.57
2023-03-11T18:23:17.102Z,2.58
2023-03-11T18:25:43.862Z,2.55
2023-03-11T18:28:10.909Z,2.56
2023-03-11T18:30:37.864Z,2.46
2023-03-11T18:33:04.470Z,2.37
2023-03-11T18:35:31.016Z,2.40
2023-03-11T18:37:57.697Z,2.41
2023-03-11T18:40:24.418Z,2.41
2023-03-11T18:42:54.150Z,2.42
2023-03-11T18:45:20.660Z,2.38
2023-03-11T18:47:47.192Z,2.39
2023-03-11T18:50:13.739Z,2.42
2023-03-11T18:52:40.318Z,2.47
2023-03-11T18:55:07.316Z,2.45
2023-03-11T18:57:33.838Z,2.46
2023-03-11T19:00:00.420Z,2.47
2023-03-11T19:02:27.038Z,2.55
2023-03-11T19:04:53.637Z,2.54
2023-03-11T19:07:20.351Z,2.54
2023-03-11T19:09:48.925Z,2.55
2023-03-11T19:12:15.484Z,2.55
2023-03-11T19:14:42.417Z,2.57
2023-03-11T19:17:09.274Z,2.64
2023-03-11T19:19:35.960Z,2.74
2023-03-11T19:22:02.707Z,2.80
2023-03-11T19:24:29.229Z,2.90
2023-03-11T19:26:55.794Z,3.01
2023-03-11T19:29:24.385Z,3.09
2023-03-11T19:31:50.872Z,3.17
2023-03-11T19:34:17.470Z,3.21
2023-03-11T19:36:44.176Z,3.27
2023-03-11T19:39:10.728Z,3.27
2023-03-11T19:41:37.321Z,3.26
2023-03-11T19:44:04.324Z,3.24
2023-03-11T19:46:34.532Z,3.28
2023-03-11T19:49:01.286Z,3.27
2023-03-11T19:51:32.984Z,3.27
2023-03-11T19:54:05.750Z,3.27
2023-03-11T19:56:32.424Z,3.28
2023-03-11T19:58:58.952Z,3.35
2023-03-11T20:01:28.296Z,3.41
2023-03-11T20:03:54.857Z,3.45
2023-03-11T20:06:22.870Z,3.48
2023-03-11T20:08:50.290Z,3.46
2023-03-11T20:11:17.276Z,3.47
2023-03-11T20:13:44.250Z,3.46
2023-03-11T20:16:15.130Z,3.43
2023-03-11T20:18:43.283Z,3.33
2023-03-11T20:21:12.213Z,3.27
2023-03-11T20:23:39.941Z,3.24
2023-03-11T20:26:12.980Z,3.26
2023-03-11T20:28:40.073Z,3.33
2023-03-11T20:31:22.096Z,3.39
2023-03-11T20:33:50.520Z,3.44
2023-03-11T20:36:22.951Z,3.46
2023-03-11T20:38:51.075Z,3.44
2023-03-11T20:41:17.827Z,3.45
2023-03-11T20:43:47.082Z,3.42
2023-03-11T20:46:13.705Z,3.43
2023-03-11T20:48:40.978Z,3.44
2023-03-11T20:51:10.891Z,3.38
2023-03-11T20:53:38.672Z,3.35
2023-03-11T20:56:10.596Z,3.28
2023-03-11T20:58:38.755Z,3.26
2023-03-11T21:01:25.652Z,3.25
2023-03-11T21:03:54.423Z,3.26
2023-03-11T21:06:29.486Z,3.30
2023-03-11T21:08:58.387Z,3.36
2023-03-11T21:11:25.979Z,3.40
2023-03-11T21:13:53.804Z,3.42
2023-03-11T21:16:21.232Z,3.45
2023-03-11T21:18:49.552Z,3.49
2023-03-11T21:21:18.239Z,3.57
2023-03-11T21:23:48.533Z,3.61
2023-03-11T21:26:16.583Z,3.63
2023-03-11T21:28:46.819Z,3.68
2023-03-11T21:31:17.676Z,3.70
2023-03-11T21:33:44.873Z,3.65
2023-03-11T21:36:13.658Z,3.77
2023-03-11T21:38:40.755Z,3.77
2023-03-11T21:41:11.959Z,3.81
2023-03-11T21:43:40.206Z,3.80
2023-03-11T21:46:07.948Z,3.82
2023-03-11T21:48:34.816Z,3.83
2023-03-11T21:51:01.827Z,3.82
2023-03-11T21:53:29.543Z,3.82
2023-03-11T21:55:56.129Z,3.82
2023-03-11T21:58:23.050Z,3.80
2023-03-11T22:00:49.729Z,3.83
2023-03-11T22:03:17.178Z,3.76
2023-03-11T22:05:44.041Z,3.82
2023-03-11T22:08:11.531Z,3.81
2023-03-11T22:10:38.775Z,3.82
2023-03-11T22:13:05.566Z,3.85
2023-03-11T22:15:32.289Z,3.87
2023-03-11T22:17:58.990Z,3.87
2023-03-11T22:20:26.147Z,3.89
2023-03-11T22:22:54.296Z,3.88
2023-03-11T22:25:20.989Z,3.86
2023-03-11T22:27:47.537Z,3.90
2023-03-11T22:30:14.180Z,3.89
2023-03-11T22:32:40.952Z,3.87
2023-03-11T22:35:07.847Z,3.86
2023-03-11T22:37:34.633Z,3.87
2023-03-11T22:40:01.148Z,3.79
2023-03-11T22:42:27.694Z,3.84
2023-03-11T22:44:54.173Z,3.80
2023-03-11T22:47:20.646Z,3.86
2023-03-11T22:49:47.458Z,3.86
2023-03-11T22:52:14.028Z,3.89
2023-03-11T22:54:40.744Z,3.89
2023-03-11T22:57:07.391Z,3.90
2023-03-11T22:59:33.889Z,3.87
2023-03-11T23:02:00.573Z,3.87
2023-03-11T23:04:27.227Z,3.91
2023-03-11T23:06:54.669Z,3.86
2023-03-11T23:09:22.324Z,3.82
2023-03-11T23:11:50.287Z,3.76
2023-03-11T23:14:16.847Z,3.74
2023-03-11T23:16:43.432Z,3.69
2023-03-11T23:19:10.061Z,3.60
2023-03-11T23:21:37.057Z,3.59
2023-03-11T23:24:06.120Z,3.53
2023-03-11T23:26:34.253Z,3.51
2023-03-11T23:29:01.586Z,3.56
2023-03-11T23:31:29.277Z,3.59
2023-03-11T23:33:56.726Z,3.61
2023-03-11T23:36:27.007Z,3.62
2023-03-11T23:38:53.715Z,3.70
2023-03-11T23:41:21.663Z,3.74
2023-03-11T23:43:48.270Z,3.71
2023-03-11T23:46:15.665Z,3.81
2023-03-11T23:48:42.410Z,3.83
2023-03-11T23:51:09.408Z,3.87
2023-03-11T23:53:36.921Z,3.87
2023-03-11T23:56:08.961Z,3.89
2023-03-11T23:58:35.506Z,3.87
